sensor_id;sensor_type;location;lat;lon;timestamp;pressure;altitude;pressure_sealevel;temperature;humidity
68669;BME280;55652;49.454;7.798;2022-09-24T16:10:18;98138.63;;;21.89;50.77
68669;BME280;55652;49.454;7.798;2022-09-24T16:12:44;98138.44;;;22.16;50.03
68669;BME280;55652;49.454;7.798;2022-09-24T16:15:14;98142.06;;;22.42;50.04
68669;BME280;55652;49.454;7.798;2022-09-24T16:17:40;98146.44;;;22.64;49.51
68669;BME280;55652;49.454;7.798;2022-09-24T16:20:06;98138.25;;;22.79;49.18
68669;BME280;55652;49.454;7.798;2022-09-24T16:22:34;98138.25;;;23.15;48.68
68669;BME280;55652;49.454;7.798;2022-09-24T16:24:59;98145.59;;;23.30;48.98
68669;BME280;55652;49.454;7.798;2022-09-24T16:27:24;98147.19;;;23.46;49.16
68669;BME280;55652;49.454;7.798;2022-09-24T16:29:50;98145.22;;;23.62;48.57
68669;BME280;55652;49.454;7.798;2022-09-24T16:32:15;98149.00;;;23.77;47.96
68669;BME280;55652;49.454;7.798;2022-09-24T16:34:40;98151.75;;;23.77;49.44
68669;BME280;55652;49.454;7.798;2022-09-24T16:37:07;98159.63;;;23.88;49.35
68669;BME280;55652;49.454;7.798;2022-09-24T16:39:33;98160.44;;;23.89;48.99
68669;BME280;55652;49.454;7.798;2022-09-24T16:41:59;98164.22;;;23.93;48.92
68669;BME280;55652;49.454;7.798;2022-09-24T16:44:24;98167.75;;;23.99;48.05
68669;BME280;55652;49.454;7.798;2022-09-24T16:46:49;98167.50;;;23.95;47.98
68669;BME280;55652;49.454;7.798;2022-09-24T16:49:15;98163.44;;;23.87;48.85
68669;BME280;55652;49.454;7.798;2022-09-24T16:51:40;98174.34;;;23.87;48.66
68669;BME280;55652;49.454;7.798;2022-09-24T16:54:05;98168.66;;;23.84;48.82
68669;BME280;55652;49.454;7.798;2022-09-24T16:56:31;98171.06;;;23.90;48.51
68669;BME280;55652;49.454;7.798;2022-09-24T16:58:56;98176.53;;;23.85;48.60
68669;BME280;55652;49.454;7.798;2022-09-24T17:01:22;98175.69;;;23.95;48.68
68669;BME280;55652;49.454;7.798;2022-09-24T17:03:54;98177.81;;;24.08;48.29
68669;BME280;55652;49.454;7.798;2022-09-24T17:06:25;98176.16;;;24.12;47.92
68669;BME280;55652;49.454;7.798;2022-09-24T17:08:51;98173.94;;;24.14;47.65
68669;BME280;55652;49.454;7.798;2022-09-24T17:11:35;98173.66;;;24.21;47.60
68669;BME280;55652;49.454;7.798;2022-09-24T17:14:01;98176.09;;;24.23;47.54
68669;BME280;55652;49.454;7.798;2022-09-24T17:16:27;98182.38;;;24.23;47.32
68669;BME280;55652;49.454;7.798;2022-09-24T17:18:53;98181.00;;;24.26;47.29
68669;BME280;55652;49.454;7.798;2022-09-24T17:21:19;98174.44;;;24.27;47.71
68669;BME280;55652;49.454;7.798;2022-09-24T17:23:45;98186.97;;;24.28;47.47
68669;BME280;55652;49.454;7.798;2022-09-24T17:26:14;98185.34;;;24.32;47.17
68669;BME280;55652;49.454;7.798;2022-09-24T17:28:42;98191.31;;;24.39;47.39
68669;BME280;55652;49.454;7.798;2022-09-24T17:31:10;98194.06;;;24.44;46.87
68669;BME280;55652;49.454;7.798;2022-09-24T17:33:36;98190.81;;;24.32;46.81
68669;BME280;55652;49.454;7.798;2022-09-24T17:36:05;98193.00;;;24.25;46.97
68669;BME280;55652;49.454;7.798;2022-09-24T17:38:32;98191.38;;;24.24;46.87
68669;BME280;55652;49.454;7.798;2022-09-24T17:41:00;98195.19;;;24.23;46.96
68669;BME280;55652;49.454;7.798;2022-09-24T17:43:27;98196.28;;;24.27;47.00
68669;BME280;55652;49.454;7.798;2022-09-24T17:45:58;98200.94;;;24.26;47.15
68669;BME280;55652;49.454;7.798;2022-09-24T17:48:26;98203.94;;;24.25;47.18
68669;BME280;55652;49.454;7.798;2022-09-24T17:50:55;98206.94;;;24.28;47.28
68669;BME280;55652;49.454;7.798;2022-09-24T17:53:22;98209.38;;;24.30;47.19
68669;BME280;55652;49.454;7.798;2022-09-24T17:55:49;98210.19;;;24.30;47.33
68669;BME280;55652;49.454;7.798;2022-09-24T17:58:16;98217.81;;;24.33;47.26
68669;BME280;55652;49.454;7.798;2022-09-24T18:00:41;98214.81;;;24.35;47.08
68669;BME280;55652;49.454;7.798;2022-09-24T18:03:07;98221.38;;;24.44;47.06
68669;BME280;55652;49.454;7.798;2022-09-24T18:05:33;98223.53;;;24.47;47.35
68669;BME280;55652;49.454;7.798;2022-09-24T18:07:58;98224.34;;;24.48;47.16
68669;BME280;55652;49.454;7.798;2022-09-24T18:10:23;98226.22;;;24.52;47.09
68669;BME280;55652;49.454;7.798;2022-09-24T18:12:48;98235.47;;;24.56;47.35
68669;BME280;55652;49.454;7.798;2022-09-24T18:15:14;98230.56;;;24.58;47.25
68669;BME280;55652;49.454;7.798;2022-09-24T18:17:39;98233.22;;;24.69;47.56
68669;BME280;55652;49.454;7.798;2022-09-24T18:20:05;98226.13;;;24.68;47.17
68669;BME280;55652;49.454;7.798;2022-09-24T18:22:30;98232.41;;;24.68;47.18
68669;BME280;55652;49.454;7.798;2022-09-24T18:24:55;98240.06;;;24.71;47.19
68669;BME280;55652;49.454;7.798;2022-09-24T18:27:24;98239.75;;;24.73;47.13
68669;BME280;55652;49.454;7.798;2022-09-24T18:29:50;98241.91;;;24.76;47.22
68669;BME280;55652;49.454;7.798;2022-09-24T18:32:16;98250.66;;;24.78;47.15
68669;BME280;55652;49.454;7.798;2022-09-24T18:34:43;98246.53;;;24.80;47.26
68669;BME280;55652;49.454;7.798;2022-09-24T18:37:08;98251.44;;;24.83;47.41
68669;BME280;55652;49.454;7.798;2022-09-24T18:39:34;98253.91;;;24.85;47.34
68669;BME280;55652;49.454;7.798;2022-09-24T18:41:59;98258.25;;;24.86;47.28
68669;BME280;55652;49.454;7.798;2022-09-24T18:44:24;98256.06;;;24.88;47.35
68669;BME280;55652;49.454;7.798;2022-09-24T18:46:50;98266.41;;;24.91;47.19
68669;BME280;55652;49.454;7.798;2022-09-24T18:49:15;98263.09;;;24.94;47.59
68669;BME280;55652;49.454;7.798;2022-09-24T18:51:41;98263.66;;;24.96;47.35
68669;BME280;55652;49.454;7.798;2022-09-24T18:54:11;98256.25;;;24.97;47.29
68669;BME280;55652;49.454;7.798;2022-09-24T18:56:36;98262.81;;;25.01;47.49
68669;BME280;55652;49.454;7.798;2022-09-24T18:59:09;98254.31;;;25.02;47.29
68669;BME280;55652;49.454;7.798;2022-09-24T19:01:35;98257.03;;;25.02;47.45
68669;BME280;55652;49.454;7.798;2022-09-24T19:04:01;98261.41;;;25.03;47.58
68669;BME280;55652;49.454;7.798;2022-09-24T19:06:28;98259.22;;;25.05;47.44
68669;BME280;55652;49.454;7.798;2022-09-24T19:08:54;98264.13;;;25.09;47.47
68669;BME280;55652;49.454;7.798;2022-09-24T19:11:19;98251.00;;;25.11;47.36
68669;BME280;55652;49.454;7.798;2022-09-24T19:13:52;98256.44;;;25.11;47.56
68669;BME280;55652;49.454;7.798;2022-09-24T19:16:20;98253.41;;;25.12;47.46
68669;BME280;55652;49.454;7.798;2022-09-24T19:18:48;98266.81;;;25.14;47.64
68669;BME280;55652;49.454;7.798;2022-09-24T19:21:14;98264.63;;;25.16;47.51
68669;BME280;55652;49.454;7.798;2022-09-24T19:23:45;98265.69;;;25.20;47.47
68669;BME280;55652;49.454;7.798;2022-09-24T19:26:14;98267.91;;;25.18;47.38
68669;BME280;55652;49.454;7.798;2022-09-24T19:28:42;98279.38;;;25.20;47.55
68669;BME280;55652;49.454;7.798;2022-09-24T19:33:47;98280.44;;;25.24;47.45
68669;BME280;55652;49.454;7.798;2022-09-24T19:36:14;98282.06;;;25.25;47.44
68669;BME280;55652;49.454;7.798;2022-09-24T19:38:42;98277.94;;;25.27;47.48
68669;BME280;55652;49.454;7.798;2022-09-24T19:43:39;98267.81;;;25.28;47.69
68669;BME280;55652;49.454;7.798;2022-09-24T19:46:09;98275.75;;;25.30;47.78
68669;BME280;55652;49.454;7.798;2022-09-24T19:48:37;98278.19;;;25.31;47.44
68669;BME280;55652;49.454;7.798;2022-09-24T19:51:06;98275.97;;;25.33;47.54
68669;BME280;55652;49.454;7.798;2022-09-24T19:53:33;98271.63;;;25.32;47.56
68669;BME280;55652;49.454;7.798;2022-09-24T19:55:59;98265.84;;;25.34;47.63
68669;BME280;55652;49.454;7.798;2022-09-24T19:58:26;98272.66;;;25.36;47.51
68669;BME280;55652;49.454;7.798;2022-09-24T20:00:59;98271.59;;;25.37;47.60
68669;BME280;55652;49.454;7.798;2022-09-24T20:03:24;98271.59;;;25.37;47.57
68669;BME280;55652;49.454;7.798;2022-09-24T20:05:50;98271.00;;;25.40;47.56
68669;BME280;55652;49.454;7.798;2022-09-24T20:08:15;98269.88;;;25.41;47.43
